createdAt,value
2017-05-28T09:57:02.658Z,1018.32
2017-05-28T09:58:11.557Z,1018.29
2017-05-28T09:59:20.486Z,1018.31
2017-05-28T10:00:29.713Z,1018.26
2017-05-28T10:01:38.988Z,1018.24
2017-05-28T10:02:48.207Z,1018.25
2017-05-28T10:03:58.088Z,1018.31
2017-05-28T10:05:06.986Z,1018.26
2017-05-28T10:06:15.884Z,1018.25
2017-05-28T10:07:25.282Z,1018.31
2017-05-28T10:08:34.359Z,1018.29
2017-05-28T10:09:43.913Z,1018.29
2017-05-28T10:10:53.464Z,1018.23
2017-05-28T10:12:02.688Z,1018.27
2017-05-28T10:13:11.965Z,1018.27
2017-05-28T10:14:21.515Z,1018.22
2017-05-28T10:15:31.391Z,1018.15
2017-05-28T10:16:40.291Z,1018.16
2017-05-28T10:17:49.207Z,1018.15
2017-05-28T10:18:59.137Z,1018.17
2017-05-28T10:20:08.363Z,1018.18
2017-05-28T10:21:17.594Z,1018.15
2017-05-28T10:22:26.497Z,1018.18
2017-05-28T10:23:35.730Z,1018.2
2017-05-28T10:24:45.713Z,1018.22
2017-05-28T10:25:54.943Z,1018.17
2017-05-28T10:27:04.493Z,1018.26
2017-05-28T10:28:13.712Z,1018.25
2017-05-28T10:29:22.617Z,1018.24
2017-05-28T10:30:31.999Z,1018.17
2017-05-28T10:31:41.548Z,1018.24
2017-05-28T10:32:50.992Z,1018.31
2017-05-28T10:34:00.545Z,1018.27
2017-05-28T10:35:09.783Z,1018.27
2017-05-28T10:36:18.899Z,1018.25
2017-05-28T10:37:27.804Z,1018.17
2017-05-28T10:38:37.365Z,1018.21
2017-05-28T10:39:46.604Z,1018.21
2017-05-28T10:40:55.844Z,1018.08
2017-05-28T10:42:04.802Z,1018.05
2017-05-28T10:43:13.760Z,1018.08
2017-05-28T10:44:22.676Z,1018.08
2017-05-28T10:45:31.907Z,1018.19
2017-05-28T10:46:41.148Z,1018.09
2017-05-28T10:47:50.367Z,1018.11
2017-05-28T10:48:59.608Z,1018.09
2017-05-28T10:50:09.172Z,1018.08
2017-05-28T10:51:18.075Z,1018.05
2017-05-28T10:52:26.972Z,1018.04
2017-05-28T10:53:35.874Z,1018.05
2017-05-28T10:54:45.752Z,1017.98
2017-05-28T10:55:54.657Z,1018.01
2017-05-28T10:57:03.983Z,1018.03
2017-05-28T10:58:12.891Z,1018.01
2017-05-28T10:59:21.948Z,1018.01
2017-05-28T11:00:31.505Z,1018.04
2017-05-28T11:01:40.408Z,1018.06
2017-05-28T11:02:49.308Z,1018.12
2017-05-28T11:03:58.890Z,1018.14
2017-05-28T11:05:07.896Z,1018.13
2017-05-28T11:06:16.795Z,1018.15
2017-05-28T11:07:26.023Z,1018.17
2017-05-28T11:08:35.244Z,1018.15
2017-05-28T11:09:44.474Z,1018.18
2017-05-28T11:10:53.376Z,1018.14
2017-05-28T11:12:02.602Z,1018.11
2017-05-28T11:13:11.506Z,1018.09
2017-05-28T11:14:21.053Z,1018.1
2017-05-28T11:15:29.953Z,1018.15
2017-05-28T11:16:39.006Z,1018.19
2017-05-28T11:17:48.225Z,1018.12
2017-05-28T11:18:57.786Z,1018.07
2017-05-28T11:20:07.010Z,1018.16
2017-05-28T11:21:16.239Z,1018.23
2017-05-28T11:22:25.570Z,1018.14
2017-05-28T11:23:34.470Z,1018.16
2017-05-28T11:24:43.759Z,1018.1
2017-05-28T11:25:52.997Z,1018.1
2017-05-28T11:27:02.548Z,1018.13
2017-05-28T11:28:12.034Z,1018.11
2017-05-28T11:29:21.586Z,1018.13
2017-05-28T11:30:30.813Z,1018.14
2017-05-28T11:31:40.041Z,1018.11
2017-05-28T11:32:49.593Z,1018.1
2017-05-28T11:33:58.970Z,1018.14
2017-05-28T11:35:08.195Z,1018.11
2017-05-28T11:36:17.494Z,1018.15
2017-05-28T11:37:27.053Z,1018.11
2017-05-28T11:38:36.281Z,1018.08
2017-05-28T11:39:45.246Z,1018.12
2017-05-28T11:40:54.211Z,1018.13
2017-05-28T11:42:03.159Z,1018.14
2017-05-28T11:43:12.110Z,1018.17
2017-05-28T11:44:21.345Z,1018.15
2017-05-28T11:45:31.124Z,1018.18
2017-05-28T11:46:40.418Z,1018.17
2017-05-28T11:47:49.330Z,1018.16
2017-05-28T11:48:58.573Z,1018.2
2017-05-28T11:50:07.501Z,1018.18
2017-05-28T11:51:17.136Z,1018.14
2017-05-28T11:52:26.087Z,1018.07
2017-05-28T11:53:35.695Z,1018.1
2017-05-28T11:54:45.911Z,1018.17
2017-05-28T11:55:54.821Z,1018.18
2017-05-28T11:57:03.831Z,1018.25
2017-05-28T11:58:13.067Z,1018.17
2017-05-28T11:59:22.297Z,1018.27
2017-05-28T12:00:31.225Z,1018.18
2017-05-28T12:01:40.212Z,1018.21
2017-05-28T12:02:49.298Z,1018.16
2017-05-28T12:03:58.533Z,1018.25
2017-05-28T12:05:07.446Z,1018.24
2017-05-28T12:06:16.359Z,1018.26
2017-05-28T12:07:25.268Z,1018.28
2017-05-28T12:08:34.273Z,1018.26
2017-05-28T12:09:43.839Z,1018.3
2017-05-28T12:10:53.073Z,1018.29
2017-05-28T12:12:02.332Z,1018.25
2017-05-28T12:13:11.574Z,1018.17
2017-05-28T12:14:20.640Z,1018.26
2017-05-28T12:15:29.874Z,1018.26
2017-05-28T12:16:38.786Z,1018.28
2017-05-28T12:17:47.696Z,1018.38
2017-05-28T12:18:56.933Z,1018.31
2017-05-28T12:20:06.242Z,1018.23
2017-05-28T12:21:15.159Z,1018.3
2017-05-28T12:22:24.072Z,1018.32
2017-05-28T12:23:32.985Z,1018.28
2017-05-28T12:24:42.232Z,1018.31
2017-05-28T12:25:52.245Z,1018.25
2017-05-28T12:27:01.682Z,1018.3
2017-05-28T12:28:10.708Z,1018.25
2017-05-28T12:29:19.945Z,1018.28
2017-05-28T12:30:29.513Z,1018.28
2017-05-28T12:31:38.905Z,1018.22
2017-05-28T12:32:47.819Z,1018.22
2017-05-28T12:33:57.390Z,1018.22
2017-05-28T12:35:06.637Z,1018.21
2017-05-28T12:36:15.878Z,1018.23
2017-05-28T12:37:24.944Z,1018.27
2017-05-28T12:38:33.855Z,1018.23
2017-05-28T12:39:43.098Z,1018.22
2017-05-28T12:40:52.661Z,1018.2
2017-05-28T12:42:01.590Z,1018.23
2017-05-28T12:43:10.501Z,1018.25
2017-05-28T12:44:19.742Z,1018.28
2017-05-28T12:45:29.632Z,1018.23
2017-05-28T12:46:38.875Z,1018.27
2017-05-28T12:47:48.117Z,1018.18
2017-05-28T12:48:57.185Z,1018.21
2017-05-28T12:50:06.106Z,1018.08
2017-05-28T12:51:15.017Z,1018.21
2017-05-28T12:52:24.308Z,1018.21
2017-05-28T12:53:33.223Z,1018.21
2017-05-28T12:54:42.148Z,1018.14
2017-05-28T12:55:51.391Z,1018.14
2017-05-28T12:57:00.972Z,1018.13
2017-05-28T12:58:09.889Z,1018.16
2017-05-28T12:59:19.135Z,1018.13
2017-05-28T13:00:29.027Z,1018.12
2017-05-28T13:01:38.270Z,1018.09
2017-05-28T13:02:47.842Z,1018.15
2017-05-28T13:03:57.405Z,1018.18
2017-05-28T13:05:06.320Z,1018.2
2017-05-28T13:06:15.338Z,1018.2
2017-05-28T13:07:24.581Z,1018.2
2017-05-28T13:08:33.557Z,1018.14
2017-05-28T13:09:42.809Z,1018.13
2017-05-28T13:10:52.053Z,1018.05
2017-05-28T13:12:00.971Z,1018.06
2017-05-28T13:13:09.887Z,1018.07
2017-05-28T13:14:19.458Z,1018.19
2017-05-28T13:15:28.707Z,1018.15
2017-05-28T13:16:37.622Z,1018.07
2017-05-28T13:17:46.689Z,1018.06
2017-05-28T13:18:56.587Z,1018.03
2017-05-28T13:20:05.831Z,1018.03
2017-05-28T13:21:14.750Z,1018.08
2017-05-28T13:22:23.669Z,1018.03
2017-05-28T13:23:32.736Z,1018.04
2017-05-28T13:24:42.627Z,1018.01
2017-05-28T13:25:51.547Z,1018.01
2017-05-28T13:27:01.121Z,1018.02
2017-05-28T13:28:10.038Z,1018.06
2017-05-28T13:29:19.427Z,1017.96
2017-05-28T13:30:28.671Z,1018.03
2017-05-28T13:31:37.602Z,1017.99
2017-05-28T13:32:47.167Z,1017.94
2017-05-28T13:33:56.748Z,1017.96
2017-05-28T13:35:06.326Z,1017.91
2017-05-28T13:36:15.569Z,1017.88
2017-05-28T13:37:24.485Z,1017.93
2017-05-28T13:38:33.408Z,1017.9
2017-05-28T13:39:42.675Z,1017.87
2017-05-28T13:40:52.066Z,1017.89
2017-05-28T13:42:01.343Z,1017.87
2017-05-28T13:43:10.908Z,1017.88
2017-05-28T13:44:20.157Z,1017.87
2017-05-28T13:45:29.758Z,1017.81
2017-05-28T13:46:38.852Z,1017.82
2017-05-28T13:47:48.112Z,1017.82
2017-05-28T13:48:57.508Z,1017.82
2017-05-28T13:50:07.177Z,1017.8
2017-05-28T13:51:16.550Z,1017.78
2017-05-28T13:52:26.240Z,1017.88
2017-05-28T13:53:35.316Z,1017.79
2017-05-28T13:54:44.417Z,1017.82
2017-05-28T13:55:54.095Z,1017.78
2017-05-28T13:57:03.446Z,1017.79
2017-05-28T13:59:51.536Z,1017.8
2017-05-28T14:01:01.149Z,1017.81
2017-05-28T14:02:10.415Z,1017.84
2017-05-28T14:03:20.285Z,1017.84
2017-05-28T14:04:29.285Z,1017.82
2017-05-28T14:05:38.692Z,1017.87
2017-05-28T14:06:48.084Z,1017.9
2017-05-28T14:07:57.648Z,1017.86
2017-05-28T14:09:07.473Z,1017.88
2017-05-28T14:10:16.865Z,1017.92
2017-05-28T14:11:25.876Z,1017.86
2017-05-28T14:12:34.979Z,1017.87
2017-05-28T14:13:45.341Z,1017.88
2017-05-28T14:14:55.815Z,1017.98
2017-05-28T14:16:05.065Z,1017.94
2017-05-28T14:17:13.988Z,1018.01
2017-05-28T14:18:23.564Z,1017.96
2017-05-28T14:19:32.815Z,1017.99
2017-05-28T14:20:42.214Z,1018.03
2017-05-28T14:21:51.462Z,1017.75
2017-05-28T14:23:00.383Z,1017.63
2017-05-28T14:24:10.278Z,1017.88
2017-05-28T14:25:19.885Z,1018.12
2017-05-28T14:26:28.797Z,1018.16
2017-05-28T14:27:38.040Z,1018.12
2017-05-28T14:28:46.957Z,1018.15
2017-05-28T14:29:56.202Z,1018.09
2017-05-28T14:31:05.444Z,1018.31
2017-05-28T14:32:15.166Z,1018.32
2017-05-28T14:33:24.086Z,1018.32
2017-05-28T14:34:33.651Z,1018.6
2017-05-28T14:35:42.891Z,1019.24
2017-05-28T14:36:52.132Z,1019.9
2017-05-28T14:38:01.453Z,1018.67
2017-05-28T14:39:11.021Z,1018.17
2017-05-28T14:40:20.266Z,1018.1
2017-05-28T14:41:29.510Z,1018.02
2017-05-28T14:42:38.426Z,1017.93
2017-05-28T14:43:47.670Z,1017.9
2017-05-28T14:44:56.591Z,1017.93
2017-05-28T14:46:05.849Z,1018.12
2017-05-28T14:47:15.085Z,1018.17
2017-05-28T14:48:24.004Z,1018.22
2017-05-28T14:49:33.726Z,1018.28
2017-05-28T14:50:42.656Z,1018.32
2017-05-28T14:51:51.581Z,1018.37
2017-05-28T14:53:00.498Z,1018.48
2017-05-28T14:54:09.747Z,1018.49
2017-05-28T14:55:18.819Z,1018.4
2017-05-28T14:56:27.738Z,1017.5
2017-05-28T14:57:36.986Z,1017.81
2017-05-28T14:58:46.561Z,1017.79
2017-05-28T14:59:55.808Z,1017.85
2017-05-28T15:01:05.358Z,1017.91
2017-05-28T15:02:14.291Z,1018.02
2017-05-28T15:03:23.325Z,1018.03
2017-05-28T15:04:33.240Z,1018.09
2017-05-28T15:05:42.535Z,1018.04
2017-05-28T15:06:51.654Z,1018.01
2017-05-28T15:08:00.566Z,1018.03
2017-05-28T15:09:10.141Z,1017.41
2017-05-28T15:10:19.064Z,1017.69
2017-05-28T15:11:27.992Z,1018.03
2017-05-28T15:12:37.380Z,1017.98
2017-05-28T15:13:46.622Z,1017.96
2017-05-28T15:14:56.517Z,1017.99
2017-05-28T15:16:05.443Z,1017.96
2017-05-28T15:17:14.904Z,1018
2017-05-28T15:18:24.723Z,1017.97
2017-05-28T15:19:33.662Z,1017.91
2017-05-28T15:20:43.232Z,1017.99
2017-05-28T15:21:52.151Z,1017.96
2017-05-28T15:23:01.451Z,1017.99
2017-05-28T15:24:10.370Z,1018.09
2017-05-28T15:25:19.298Z,1018.15
2017-05-28T15:26:28.863Z,1018.06
2017-05-28T15:27:38.434Z,1018.19
2017-05-28T15:28:48.347Z,1018.22
2017-05-28T15:29:57.571Z,1018.17
2017-05-28T15:31:06.828Z,1018.15
2017-05-28T15:32:16.392Z,1018.13
2017-05-28T15:33:25.638Z,1018.08
2017-05-28T15:34:34.586Z,1017.93
2017-05-28T15:35:44.014Z,1017.76
2017-05-28T15:36:54.017Z,1017.71
2017-05-28T15:38:03.587Z,1017.61
2017-05-28T15:39:12.549Z,1017.49
2017-05-28T15:40:21.801Z,1017.4
2017-05-28T15:41:30.713Z,1017.46
2017-05-28T15:42:39.960Z,1017.44
2017-05-28T15:43:49.207Z,1017.5
2017-05-28T15:44:58.457Z,1017.5
2017-05-28T15:46:07.381Z,1017.55
2017-05-28T15:47:16.451Z,1017.56
2017-05-28T15:48:25.694Z,1017.54
2017-05-28T15:49:34.613Z,1017.44
2017-05-28T15:50:43.858Z,1017.53
2017-05-28T15:51:52.775Z,1017.56
2017-05-28T15:53:01.751Z,1017.63
2017-05-28T15:54:10.667Z,1017.66
2017-05-28T15:55:20.295Z,1017.7
2017-05-28T15:56:29.861Z,1017.7
2017-05-28T15:57:39.105Z,1017.7
2017-05-28T15:58:48.504Z,1017.75
2017-05-28T15:59:57.745Z,1017.75
2017-05-28T16:01:06.990Z,1017.79
2017-05-28T16:02:16.234Z,1017.73
2017-05-28T16:03:25.158Z,1017.72
2017-05-28T16:04:34.785Z,1017.73
2017-05-28T16:05:44.035Z,1017.76
2017-05-28T16:06:53.283Z,1017.74
2017-05-28T16:08:02.521Z,1017.79
2017-05-28T16:09:11.441Z,1017.75
2017-05-28T16:10:20.520Z,1017.72
2017-05-28T16:11:29.762Z,1017.65
2017-05-28T16:12:38.681Z,1017.66
2017-05-28T16:13:47.932Z,1017.64
2017-05-28T16:14:57.177Z,1017.73
2017-05-28T16:16:06.852Z,1017.69
2017-05-28T16:17:15.771Z,1017.5
2017-05-28T16:18:25.008Z,1017.72
2017-05-28T16:19:34.575Z,1017.58
2017-05-28T16:20:43.812Z,1017.47
2017-05-28T16:21:52.885Z,1017.77
2017-05-28T16:23:01.806Z,1017.75
2017-05-28T16:24:10.722Z,1017.86
2017-05-28T16:25:19.970Z,1017.89
2017-05-28T16:26:29.205Z,1017.91
2017-05-28T16:27:38.772Z,1017.93
2017-05-28T16:28:48.022Z,1017.83
2017-05-28T16:29:57.283Z,1017.81
2017-05-28T16:31:06.195Z,1017.83
2017-05-28T16:32:15.109Z,1017.9
2017-05-28T16:33:24.221Z,1017.89
2017-05-28T16:34:33.559Z,1017.85
2017-05-28T16:35:42.843Z,1017.93
2017-05-28T16:36:51.802Z,1017.83
2017-05-28T16:38:00.800Z,1017.88
2017-05-28T16:39:10.194Z,1017.84
2017-05-28T16:40:19.436Z,1017.84
2017-05-28T16:41:28.350Z,1017.79
2017-05-28T16:42:37.591Z,1017.73
2017-05-28T16:43:46.887Z,1017.82
2017-05-28T16:44:55.951Z,1017.85
2017-05-28T16:46:04.864Z,1017.77
2017-05-28T16:47:14.106Z,1017.83
2017-05-28T16:48:23.352Z,1017.88
2017-05-28T16:49:33.242Z,1017.87
2017-05-28T16:50:42.158Z,1017.87
2017-05-28T16:51:52.269Z,1017.71
2017-05-28T16:53:01.203Z,1017.68
2017-05-28T16:54:10.813Z,1017.84
2017-05-28T16:55:19.729Z,1017.78
2017-05-28T16:56:28.713Z,1017.76
2017-05-28T16:57:37.979Z,1017.72
2017-05-28T16:58:47.343Z,1017.72
2017-05-28T16:59:56.928Z,1017.76
2017-05-28T17:01:06.166Z,1017.76
2017-05-28T17:02:15.083Z,1017.72
2017-05-28T17:03:24.318Z,1017.7
2017-05-28T17:04:33.553Z,1017.66
2017-05-28T17:05:42.795Z,1017.63
2017-05-28T17:06:51.701Z,1017.63
2017-05-28T17:08:00.615Z,1017.67
2017-05-28T17:09:09.861Z,1017.61
2017-05-28T17:10:18.776Z,1017.64
2017-05-28T17:11:27.684Z,1017.61
2017-05-28T17:12:36.918Z,1017.65
2017-05-28T17:13:46.231Z,1017.69
2017-05-28T17:14:55.467Z,1017.67
2017-05-28T17:16:04.704Z,1017.69
2017-05-28T17:17:14.280Z,1017.64
2017-05-28T17:18:23.517Z,1017.62
2017-05-28T17:19:32.433Z,1017.7
2017-05-28T17:20:41.347Z,1017.65
2017-05-28T17:21:51.054Z,1017.64
2017-05-28T17:23:00.324Z,1017.63
2017-05-28T17:24:09.576Z,1017.6
2017-05-28T17:25:18.814Z,1017.63
2017-05-28T17:26:28.052Z,1017.6
2017-05-28T17:27:37.225Z,1017.61
2017-05-28T17:28:47.119Z,1017.61
2017-05-28T17:29:57.008Z,1017.65
2017-05-28T17:31:06.890Z,1017.69
2017-05-28T17:32:16.126Z,1017.73
2017-05-28T17:33:25.831Z,1017.69
2017-05-28T17:34:34.765Z,1017.66
2017-05-28T17:35:44.002Z,1017.63
2017-05-28T17:36:53.562Z,1017.56
2017-05-28T17:38:03.127Z,1017.66
2017-05-28T17:39:12.607Z,1017.66
2017-05-28T17:40:21.517Z,1017.75
2017-05-28T17:41:30.693Z,1017.68
2017-05-28T17:42:39.938Z,1017.57
2017-05-28T17:43:48.855Z,1017.57
2017-05-28T17:44:58.264Z,1017.61
2017-05-28T17:46:07.737Z,1017.49
2017-05-28T17:47:16.969Z,1017.48
2017-05-28T17:48:25.873Z,1017.37
2017-05-28T17:49:35.760Z,1017.35
2017-05-28T17:50:45.249Z,1017.32
2017-05-28T17:51:54.174Z,1017.29
2017-05-28T17:53:03.091Z,1017.29
2017-05-28T17:54:12.013Z,1017.31
2017-05-28T17:55:20.934Z,1017.32
2017-05-28T17:56:30.141Z,1017.25
2017-05-28T17:57:39.376Z,1017.3
2017-05-28T17:58:48.302Z,1017.25
2017-05-28T17:59:57.874Z,1017.29
2017-05-28T18:01:06.784Z,1017.25
2017-05-28T18:02:15.791Z,1017.21
2017-05-28T18:03:25.026Z,1017.25
2017-05-28T18:04:34.580Z,1017.22
2017-05-28T18:05:43.875Z,1017.25
2017-05-28T18:06:53.437Z,1017.25
2017-05-28T18:08:02.342Z,1017.26
2017-05-28T18:09:11.588Z,1017.3
2017-05-28T18:10:20.815Z,1017.33
2017-05-28T18:11:30.049Z,1017.25
2017-05-28T18:12:38.958Z,1017.26
2017-05-28T18:13:48.569Z,1017.3
2017-05-28T18:14:58.448Z,1017.26
2017-05-28T18:16:08.012Z,1017.31
2017-05-28T18:17:17.238Z,1017.34
2017-05-28T18:18:26.138Z,1017.29
2017-05-28T18:19:35.795Z,1017.26
2017-05-28T18:20:45.081Z,1017.31
2017-05-28T18:21:54.315Z,1017.3
2017-05-28T18:23:03.549Z,1017.37
2017-05-28T18:24:12.448Z,1017.3
2017-05-28T18:25:22.632Z,1017.35
2017-05-28T18:26:31.859Z,1017.33
2017-05-28T18:27:40.760Z,1017.35
2017-05-28T18:28:49.993Z,1017.3
2017-05-28T18:29:59.870Z,1017.35
2017-05-28T18:31:09.346Z,1017.32
2017-05-28T18:32:18.579Z,1017.34
2017-05-28T18:33:27.802Z,1017.32
2017-05-28T18:34:37.032Z,1017.36
2017-05-28T18:35:46.919Z,1017.39
2017-05-28T18:36:56.494Z,1017.42
2017-05-28T18:38:05.397Z,1017.46
2017-05-28T18:39:14.627Z,1017.46
2017-05-28T18:40:23.857Z,1017.46
2017-05-28T18:41:32.756Z,1017.46
2017-05-28T18:42:41.762Z,1017.49
2017-05-28T18:43:50.669Z,1017.47
2017-05-28T18:45:00.226Z,1017.44
2017-05-28T18:46:09.452Z,1017.47
2017-05-28T18:47:18.364Z,1017.49
2017-05-28T18:48:27.416Z,1017.49
2017-05-28T18:49:36.649Z,1017.48
2017-05-28T18:50:45.875Z,1017.48
2017-05-28T18:51:55.094Z,1017.49
2017-05-28T18:53:04.645Z,1017.54
2017-05-28T18:54:14.247Z,1017.51
2017-05-28T18:55:23.475Z,1017.55
2017-05-28T18:56:32.379Z,1017.53
2017-05-28T18:57:41.937Z,1017.55
2017-05-28T18:58:51.488Z,1017.56
2017-05-28T19:00:00.862Z,1017.56
2017-05-28T19:01:09.767Z,1017.55
2017-05-28T19:02:18.990Z,1017.56
2017-05-28T19:03:28.216Z,1017.53
2017-05-28T19:04:37.444Z,1017.57
2017-05-28T19:05:47.193Z,1017.55
2017-05-28T19:06:56.104Z,1017.58
2017-05-28T19:08:05.005Z,1017.57
2017-05-28T19:09:14.238Z,1017.59
2017-05-28T19:10:23.474Z,1017.7
2017-05-28T19:11:32.946Z,1017.68
2017-05-28T19:12:42.171Z,1017.69
2017-05-28T19:13:51.412Z,1017.71
2017-05-28T19:15:00.654Z,1017.67
2017-05-28T19:16:09.550Z,1017.61
2017-05-28T19:17:18.806Z,1017.67
2017-05-28T19:18:28.030Z,1017.6
2017-05-28T19:19:36.928Z,1017.57
2017-05-28T19:20:46.805Z,1017.58
2017-05-28T19:21:55.705Z,1017.6
2017-05-28T19:23:05.311Z,1017.62
2017-05-28T19:24:14.533Z,1017.58
2017-05-28T19:25:24.080Z,1017.6
2017-05-28T19:26:33.302Z,1017.64
2017-05-28T19:27:42.205Z,1017.63
2017-05-28T19:28:51.256Z,1017.65
2017-05-28T19:30:01.130Z,1017.64
2017-05-28T19:31:10.029Z,1017.65
2017-05-28T19:32:18.932Z,1017.62
2017-05-28T19:33:28.154Z,1017.67
2017-05-28T19:34:37.222Z,1017.64
2017-05-28T19:35:47.099Z,1017.63
2017-05-28T19:36:55.998Z,1017.64
2017-05-28T19:38:04.903Z,1017.62
2017-05-28T19:39:14.134Z,1017.65
2017-05-28T19:40:23.782Z,1017.68
2017-05-28T19:41:32.681Z,1017.65
2017-05-28T19:42:42.261Z,1017.68
2017-05-28T19:43:51.810Z,1017.68
2017-05-28T19:45:01.039Z,1017.75
2017-05-28T19:46:10.368Z,1017.72
2017-05-28T19:47:19.591Z,1017.74
2017-05-28T19:48:28.490Z,1017.76
2017-05-28T19:49:37.390Z,1017.79
2017-05-28T19:50:46.941Z,1017.81
2017-05-28T19:51:55.948Z,1017.8
2017-05-28T19:53:05.494Z,1017.81
2017-05-28T19:54:14.719Z,1017.84
2017-05-28T19:55:23.619Z,1017.89
2017-05-28T19:56:32.513Z,1017.84
2017-05-28T19:57:41.790Z,1017.82
2017-05-28T19:58:51.339Z,1017.82
2017-05-28T20:00:00.889Z,1017.88
2017-05-28T20:01:10.168Z,1017.88
2017-05-28T20:02:19.063Z,1017.87
2017-05-28T20:03:28.715Z,1017.89
2017-05-28T20:04:37.940Z,1017.89
2017-05-28T20:05:47.489Z,1017.88
2017-05-28T20:06:56.390Z,1017.92
2017-05-28T20:08:05.294Z,1017.93
2017-05-28T20:09:14.437Z,1017.96
2017-05-28T20:10:23.338Z,1017.95
2017-05-28T20:11:32.234Z,1017.93
2017-05-28T20:12:41.132Z,1017.96
2017-05-28T20:13:50.687Z,1017.93
2017-05-28T20:14:59.964Z,1017.87
2017-05-28T20:16:08.861Z,1017.86
2017-05-28T20:17:17.760Z,1017.85
2017-05-28T20:18:26.992Z,1017.88
2017-05-28T20:19:35.891Z,1017.89
2017-05-28T20:20:45.264Z,1017.87
2017-05-28T20:21:54.487Z,1017.87
2017-05-28T20:23:03.385Z,1017.89
2017-05-28T20:24:12.287Z,1017.93
2017-05-28T20:25:21.186Z,1017.96
2017-05-28T20:26:30.559Z,1017.95
2017-05-28T20:27:39.460Z,1017.95
2017-05-28T20:28:49.004Z,1017.96
2017-05-28T20:29:57.902Z,1017.98
2017-05-28T20:31:06.800Z,1017.94
2017-05-28T20:32:16.506Z,1017.92
2017-05-28T20:33:25.401Z,1017.94
2017-05-28T20:34:34.295Z,1017.9
2017-05-28T20:35:43.517Z,1017.92
2017-05-28T20:36:52.415Z,1017.92
2017-05-28T20:38:01.481Z,1017.91
2017-05-28T20:39:10.376Z,1017.9
2017-05-28T20:40:19.923Z,1017.94
2017-05-28T20:41:29.141Z,1017.9
2017-05-28T20:42:38.367Z,1017.89
2017-05-28T20:43:48.548Z,1017.92
2017-05-28T20:44:58.419Z,1017.93
2017-05-28T20:46:07.323Z,1017.94
2017-05-28T20:47:16.544Z,1017.97
2017-05-28T20:48:25.445Z,1017.98
2017-05-28T20:49:34.835Z,1018
2017-05-28T20:50:44.380Z,1017.98
2017-05-28T20:51:53.275Z,1017.96
2017-05-28T20:53:02.171Z,1018.01
2017-05-28T20:54:11.072Z,1017.98
2017-05-28T20:55:20.493Z,1018.01
2017-05-28T20:56:29.444Z,1018.06
2017-05-28T20:57:38.338Z,1018.09
2017-05-28T20:58:47.562Z,1018.09
2017-05-28T20:59:56.849Z,1018.09
2017-05-28T21:01:06.711Z,1018.05
2017-05-28T21:02:15.609Z,1018
2017-05-28T21:03:24.829Z,1017.95
2017-05-28T21:04:33.732Z,1017.91
2017-05-28T21:05:42.957Z,1017.92
2017-05-28T21:06:52.101Z,1017.92
2017-05-28T21:08:00.998Z,1017.94
2017-05-28T21:09:10.547Z,1017.88
2017-05-28T21:10:19.440Z,1017.92
2017-05-28T21:11:28.341Z,1017.88
2017-05-28T21:12:37.610Z,1017.91
2017-05-28T21:13:46.833Z,1017.93
2017-05-28T21:14:56.061Z,1017.91
2017-05-28T21:16:05.285Z,1017.92
2017-05-28T21:17:14.183Z,1017.89
2017-05-28T21:18:23.236Z,1017.85
2017-05-28T21:19:32.785Z,1017.83
2017-05-28T21:20:41.683Z,1017.78
2017-05-28T21:21:50.962Z,1017.75
2017-05-28T21:22:59.856Z,1017.76
2017-05-28T21:24:09.077Z,1017.76
2017-05-28T21:25:18.631Z,1017.77
2017-05-28T21:26:28.178Z,1017.74
2017-05-28T21:27:37.398Z,1017.76
2017-05-28T21:28:47.282Z,1017.71
2017-05-28T21:29:56.247Z,1017.73
2017-05-28T21:31:05.137Z,1017.68
2017-05-28T21:32:14.041Z,1017.7
2017-05-28T21:33:23.258Z,1017.75
2017-05-28T21:34:32.830Z,1017.72
2017-05-28T21:35:42.105Z,1017.65
2017-05-28T21:36:51.321Z,1017.68
2017-05-28T21:38:00.539Z,1017.65
2017-05-28T21:39:10.096Z,1017.64
2017-05-28T21:40:19.314Z,1017.68
2017-05-28T21:41:28.681Z,1017.69
2017-05-28T21:42:37.901Z,1017.76
2017-05-28T21:43:47.442Z,1017.75
2017-05-28T21:44:56.347Z,1017.71
2017-05-28T21:46:05.245Z,1017.72
2017-05-28T21:47:14.285Z,1017.78
2017-05-28T21:48:23.833Z,1017.78
2017-05-28T21:49:33.058Z,1017.82
2017-05-28T21:50:42.610Z,1017.87
2017-05-28T21:51:51.503Z,1017.82
2017-05-28T21:53:00.562Z,1017.78
2017-05-28T21:54:10.109Z,1017.74
2017-05-28T21:55:19.656Z,1017.76
2017-05-28T21:56:28.551Z,1017.77
2017-05-28T21:57:37.443Z,1017.75
2017-05-28T21:58:47.194Z,1017.72
2017-05-28T21:59:56.741Z,1017.75
2017-05-28T22:01:05.635Z,1017.8
2017-05-28T22:02:14.531Z,1017.77
2017-05-28T22:03:23.742Z,1017.81
2017-05-28T22:04:33.362Z,1017.82
2017-05-28T22:05:42.590Z,1017.76
2017-05-28T22:06:51.487Z,1017.79
2017-05-28T22:08:00.378Z,1017.77
2017-05-28T22:09:10.253Z,1017.8
2017-05-28T22:10:19.850Z,1017.79
2017-05-28T22:11:29.078Z,1017.75
2017-05-28T22:12:38.297Z,1017.74
2017-05-28T22:13:47.193Z,1017.75
2017-05-28T22:14:56.416Z,1017.73
2017-05-28T22:16:05.365Z,1017.73
2017-05-28T22:17:14.640Z,1017.7
2017-05-28T22:18:23.857Z,1017.67
2017-05-28T22:19:33.404Z,1017.64
2017-05-28T22:20:42.949Z,1017.66
2017-05-28T22:21:52.220Z,1017.62
2017-05-28T22:23:01.111Z,1017.61
2017-05-28T22:24:10.654Z,1017.58
2017-05-28T22:25:19.884Z,1017.56
2017-05-28T22:26:28.784Z,1017.51
2017-05-28T22:27:37.778Z,1017.51
2017-05-28T22:28:46.998Z,1017.48
2017-05-28T22:29:55.894Z,1017.5
2017-05-28T22:31:05.112Z,1017.45
2017-05-28T22:32:14.008Z,1017.52
2017-05-28T22:33:23.203Z,1017.59
2017-05-28T22:34:32.425Z,1017.55
2017-05-28T22:35:41.646Z,1017.53
2017-05-28T22:36:50.542Z,1017.5
2017-05-28T22:38:00.081Z,1017.45
2017-05-28T22:39:10.202Z,1017.44
2017-05-28T22:40:19.427Z,1017.43
2017-05-28T22:41:28.333Z,1017.41
2017-05-28T22:42:37.223Z,1017.41
2017-05-28T22:43:47.104Z,1017.4
2017-05-28T22:44:56.381Z,1017.4
2017-05-28T22:46:05.274Z,1017.36
2017-05-28T22:47:14.166Z,1017.36
2017-05-28T22:48:23.711Z,1017.35
2017-05-28T22:49:32.995Z,1017.44
2017-05-28T22:50:42.042Z,1017.41
2017-05-28T22:51:50.930Z,1017.4
2017-05-28T22:53:00.153Z,1017.41
2017-05-28T22:54:09.376Z,1017.34
2017-05-28T22:55:18.277Z,1017.35
2017-05-28T22:56:27.173Z,1017.35
2017-05-28T22:57:36.389Z,1017.38
2017-05-28T22:58:45.611Z,1017.37
2017-05-28T22:59:54.825Z,1017.36
2017-05-28T23:01:04.370Z,1017.3
2017-05-28T23:02:13.594Z,1017.27
2017-05-28T23:03:22.496Z,1017.27
2017-05-28T23:04:31.388Z,1017.3
2017-05-28T23:05:40.278Z,1017.29
2017-05-28T23:06:49.821Z,1017.29
2017-05-28T23:07:59.020Z,1017.28
2017-05-28T23:09:07.912Z,1017.24
2017-05-28T23:10:17.131Z,1017.25
2017-05-28T23:11:26.356Z,1017.21
2017-05-28T23:12:35.249Z,1017.23
2017-05-28T23:13:44.895Z,1017.19
2017-05-28T23:14:53.791Z,1017.17
2017-05-28T23:16:03.010Z,1017.23
2017-05-28T23:17:11.902Z,1017.22
2017-05-28T23:18:21.122Z,1017.2
2017-05-28T23:19:30.830Z,1017.24
2017-05-28T23:20:39.723Z,1017.24
2017-05-28T23:21:48.615Z,1017.18
2017-05-28T23:22:57.510Z,1017.25
2017-05-28T23:24:06.405Z,1017.22
2017-05-28T23:25:15.777Z,1017.2
2017-05-28T23:26:24.999Z,1017.25
2017-05-28T23:27:33.891Z,1017.26
2017-05-28T23:28:43.110Z,1017.17
2017-05-28T23:29:52.655Z,1017.16
2017-05-28T23:31:01.594Z,1017.11
2017-05-28T23:32:10.485Z,1017.09
2017-05-28T23:33:19.382Z,1017.09
2017-05-28T23:34:28.594Z,1017.04
2017-05-28T23:35:37.822Z,1016.98
2017-05-28T23:36:47.013Z,1016.95
2017-05-28T23:37:55.908Z,1016.93
2017-05-28T23:39:05.157Z,1016.9
2017-05-28T23:40:14.377Z,1016.92
2017-05-28T23:41:23.602Z,1016.92
2017-05-28T23:42:33.125Z,1016.88
2017-05-28T23:43:42.679Z,1016.87
2017-05-28T23:44:51.574Z,1016.87
2017-05-28T23:46:01.126Z,1016.92
2017-05-28T23:47:10.349Z,1016.87
2017-05-28T23:48:20.043Z,1016.9
2017-05-28T23:49:29.588Z,1016.86
2017-05-28T23:50:38.502Z,1016.84
2017-05-28T23:51:47.719Z,1016.83
2017-05-28T23:52:56.609Z,1016.84
2017-05-28T23:54:05.984Z,1016.79
2017-05-28T23:55:15.857Z,1016.82
2017-05-28T23:56:25.402Z,1016.77
2017-05-28T23:57:34.289Z,1016.78
2017-05-28T23:58:43.885Z,1016.72